createdAt,value
2023-03-11T00:01:44.253Z,24.30
2023-03-11T00:05:44.583Z,24.33
2023-03-11T00:09:44.639Z,24.29
2023-03-11T00:13:44.880Z,24.26
2023-03-11T00:17:45.090Z,24.23
2023-03-11T00:21:45.284Z,24.23
2023-03-11T00:25:45.244Z,24.21
2023-03-11T00:29:45.213Z,24.20
2023-03-11T00:33:45.187Z,24.20
2023-03-11T00:37:45.118Z,24.21
2023-03-11T00:41:45.102Z,24.21
2023-03-11T00:45:45.049Z,24.23
2023-03-11T00:49:45.050Z,24.23
2023-03-11T00:53:44.971Z,24.26
2023-03-11T00:57:44.954Z,24.26
2023-03-11T01:01:44.996Z,24.27
2023-03-11T01:05:45.028Z,24.27
2023-03-11T01:09:45.221Z,24.27
2023-03-11T01:13:45.397Z,24.27
2023-03-11T01:17:45.595Z,24.29
2023-03-11T01:21:45.811Z,24.27
2023-03-11T01:25:46.016Z,24.29
2023-03-11T01:29:46.215Z,24.27
2023-03-11T01:33:46.442Z,24.26
2023-03-11T01:37:46.408Z,24.26
2023-03-11T01:41:46.385Z,24.29
2023-03-11T01:45:46.327Z,24.23
2023-03-11T01:49:46.276Z,24.23
2023-03-11T01:53:46.249Z,24.21
2023-03-11T01:57:46.255Z,24.23
2023-03-11T02:01:46.254Z,24.23
2023-03-11T02:05:46.153Z,24.21
2023-03-11T02:09:46.154Z,24.23
2023-03-11T02:13:46.139Z,24.21
2023-03-11T02:17:46.343Z,24.24
2023-03-11T02:21:46.600Z,24.24
2023-03-11T02:25:46.805Z,24.23
2023-03-11T02:29:47.003Z,24.24
2023-03-11T02:33:47.192Z,24.26
2023-03-11T02:37:47.438Z,24.26
2023-03-11T02:41:47.648Z,24.23
2023-03-11T02:45:47.851Z,24.24
2023-03-11T02:49:48.044Z,24.23
2023-03-11T02:53:48.278Z,24.24
2023-03-11T02:57:48.240Z,24.23
2023-03-11T03:01:48.226Z,24.23
2023-03-11T03:05:48.174Z,24.21
2023-03-11T03:09:48.207Z,24.21
2023-03-11T03:13:48.109Z,24.24
2023-03-11T03:17:48.055Z,24.20
2023-03-11T03:21:48.035Z,24.23
2023-03-11T03:25:47.974Z,24.23
2023-03-11T03:29:47.959Z,24.21
2023-03-11T03:33:47.955Z,24.21
2023-03-11T03:37:48.144Z,24.20
2023-03-11T03:41:48.149Z,24.21
2023-03-11T03:45:48.097Z,24.19
2023-03-11T03:49:48.053Z,24.19
2023-03-11T03:53:48.131Z,24.19
2023-03-11T03:57:47.982Z,24.21
2023-03-11T04:01:47.911Z,24.23
2023-03-11T04:05:47.897Z,24.20
2023-03-11T04:09:47.857Z,24.21
2023-03-11T04:13:47.882Z,24.20
2023-03-11T04:17:47.826Z,24.17
2023-03-11T04:21:47.789Z,24.20
2023-03-11T04:25:47.751Z,24.15
2023-03-11T04:29:47.722Z,24.19
2023-03-11T04:33:47.683Z,24.17
2023-03-11T04:37:47.653Z,24.17
2023-03-11T04:41:47.623Z,24.16
2023-03-11T04:45:47.611Z,24.16
2023-03-11T04:49:47.527Z,24.17
2023-03-11T04:53:47.475Z,24.17
2023-03-11T04:57:47.492Z,24.16
2023-03-11T05:01:47.538Z,24.16
2023-03-11T05:05:47.445Z,24.16
2023-03-11T05:09:47.365Z,24.16
2023-03-11T05:13:47.334Z,24.16
2023-03-11T05:17:47.281Z,24.17
2023-03-11T05:21:47.286Z,24.15
2023-03-11T05:25:47.223Z,24.15
2023-03-11T05:29:47.224Z,24.15
2023-03-11T05:33:47.167Z,24.13
2023-03-11T05:37:47.313Z,24.13
2023-03-11T05:41:47.290Z,24.13
2023-03-11T05:45:47.228Z,24.15
2023-03-11T05:49:47.195Z,24.13
2023-03-11T05:53:47.159Z,24.12
2023-03-11T05:57:47.131Z,24.15
2023-03-11T06:01:47.098Z,24.15
2023-03-11T06:05:47.060Z,24.15
2023-03-11T06:09:47.003Z,24.16
2023-03-11T06:13:46.983Z,24.15
2023-03-11T06:17:47.144Z,24.16
2023-03-11T06:21:47.155Z,24.17
2023-03-11T06:25:47.057Z,24.19
2023-03-11T06:29:48.676Z,24.19
2023-03-11T06:33:47.001Z,24.17
2023-03-11T06:37:46.948Z,24.17
2023-03-11T06:41:47.009Z,24.17
2023-03-11T06:45:47.015Z,24.17
2023-03-11T06:49:46.900Z,24.20
2023-03-11T06:53:46.899Z,24.19
2023-03-11T06:57:46.865Z,24.20
2023-03-11T07:01:46.830Z,24.19
2023-03-11T07:05:46.786Z,24.21
2023-03-11T07:09:46.750Z,24.21
2023-03-11T07:13:46.711Z,24.20
2023-03-11T07:17:46.692Z,24.26
2023-03-11T07:21:46.694Z,24.26
2023-03-11T07:25:46.879Z,24.29
2023-03-11T07:29:47.113Z,24.29
2023-03-11T07:33:48.188Z,24.29
2023-03-11T07:37:47.543Z,24.27
2023-03-11T07:41:47.774Z,24.29
2023-03-11T07:45:47.983Z,24.31
2023-03-11T07:49:48.116Z,24.31
2023-03-11T07:53:48.333Z,24.37
2023-03-11T07:57:48.481Z,24.33
2023-03-11T08:01:48.688Z,24.33
2023-03-11T08:05:48.897Z,24.34
2023-03-11T08:09:49.080Z,24.39
2023-03-11T08:13:49.259Z,24.39
2023-03-11T08:17:49.448Z,24.39
2023-03-11T08:21:49.608Z,24.39
2023-03-11T08:25:49.846Z,24.39
2023-03-11T08:29:49.960Z,24.44
2023-03-11T08:33:50.129Z,24.43
2023-03-11T08:37:50.308Z,24.46
2023-03-11T08:41:50.509Z,24.47
2023-03-11T08:45:50.656Z,24.51
2023-03-11T08:49:50.821Z,24.54
2023-03-11T08:53:51.012Z,24.56
2023-03-11T08:57:51.178Z,24.59
2023-03-11T09:01:51.343Z,24.61
2023-03-11T09:05:51.494Z,24.63
2023-03-11T09:09:51.671Z,24.64
2023-03-11T09:13:51.850Z,24.61
2023-03-11T09:17:51.987Z,24.63
2023-03-11T09:21:52.172Z,24.64
2023-03-11T09:25:52.322Z,24.66
2023-03-11T09:29:52.466Z,24.70
2023-03-11T09:33:52.592Z,24.71
2023-03-11T09:37:52.750Z,24.75
2023-03-11T09:41:58.473Z,24.77
2023-03-11T09:45:53.872Z,24.74
2023-03-11T09:49:52.823Z,24.74
2023-03-11T09:53:52.765Z,24.72
2023-03-11T09:57:52.749Z,24.74
2023-03-11T10:01:52.934Z,24.75
2023-03-11T10:05:53.020Z,24.75
2023-03-11T10:09:53.138Z,24.78
2023-03-11T10:13:53.281Z,24.80
2023-03-11T10:17:53.395Z,24.84
2023-03-11T10:21:53.492Z,24.85
2023-03-11T10:25:53.572Z,24.90
2023-03-11T10:29:53.651Z,24.90
2023-03-11T10:33:53.720Z,24.90
2023-03-11T10:37:53.815Z,24.90
2023-03-11T10:41:53.873Z,24.92
2023-03-11T10:45:54.025Z,24.94
2023-03-11T10:49:54.018Z,24.97
2023-03-11T10:53:54.115Z,24.98
2023-03-11T10:57:54.117Z,24.98
2023-03-11T11:01:54.226Z,24.92
2023-03-11T11:05:54.305Z,24.94
2023-03-11T11:09:54.351Z,24.91
2023-03-11T11:13:54.424Z,24.94
2023-03-11T11:17:54.560Z,24.91
2023-03-11T11:21:54.575Z,24.94
2023-03-11T11:25:54.621Z,24.91
2023-03-11T11:29:54.674Z,24.92
2023-03-11T11:33:54.769Z,24.92
2023-03-11T11:37:54.826Z,24.95
2023-03-11T11:41:54.888Z,24.91
2023-03-11T11:45:54.923Z,24.95
2023-03-11T11:49:54.983Z,24.94
2023-03-11T11:53:55.023Z,24.95
2023-03-11T11:57:55.093Z,24.99
2023-03-11T12:01:55.135Z,25.01
2023-03-11T12:05:57.892Z,24.98
2023-03-11T12:09:55.135Z,25.04
2023-03-11T12:13:55.122Z,25.05
2023-03-11T12:17:55.087Z,25.14
2023-03-11T12:21:55.051Z,25.17
2023-03-11T12:25:54.981Z,25.19
2023-03-11T12:29:54.963Z,25.22
2023-03-11T12:33:54.911Z,25.28
2023-03-11T12:37:54.929Z,25.35
2023-03-11T12:41:54.855Z,25.43
2023-03-11T12:45:54.831Z,25.52
2023-03-11T12:49:54.883Z,25.59
2023-03-11T12:53:54.773Z,25.68
2023-03-11T12:57:54.725Z,25.79
2023-03-11T13:01:54.789Z,25.83
2023-03-11T13:05:54.639Z,25.90
2023-03-11T13:09:54.606Z,25.93
2023-03-11T13:13:54.554Z,26.01
2023-03-11T13:17:54.568Z,26.07
2023-03-11T13:21:54.595Z,26.13
2023-03-11T13:25:54.635Z,26.07
2023-03-11T13:29:54.703Z,26.20
2023-03-11T13:33:54.693Z,26.30
2023-03-11T13:37:54.706Z,26.31
2023-03-11T13:41:54.679Z,26.40
2023-03-11T13:45:54.771Z,26.51
2023-03-11T13:49:54.616Z,26.62
2023-03-11T13:53:54.586Z,26.65
2023-03-11T13:57:54.568Z,26.71
2023-03-11T14:01:54.503Z,26.70
2023-03-11T14:05:54.496Z,26.77
2023-03-11T14:09:54.426Z,26.77
2023-03-11T14:13:54.391Z,26.78
2023-03-11T14:17:54.395Z,26.77
2023-03-11T14:21:54.312Z,26.71
2023-03-11T14:25:54.420Z,26.68
2023-03-11T14:29:54.608Z,26.61
2023-03-11T14:33:54.774Z,26.54
2023-03-11T14:37:54.743Z,26.48
2023-03-11T14:41:54.711Z,26.46
2023-03-11T14:45:54.730Z,26.40
2023-03-11T14:49:54.639Z,26.37
2023-03-11T14:53:54.599Z,26.37
2023-03-11T14:57:54.548Z,26.31
2023-03-11T15:01:54.523Z,26.26
2023-03-11T15:05:54.516Z,26.21
2023-03-11T15:09:54.435Z,26.24
2023-03-11T15:13:54.439Z,26.24
2023-03-11T15:17:54.405Z,26.23
2023-03-11T15:21:54.641Z,26.24
2023-03-11T15:25:54.777Z,26.20
2023-03-11T15:29:54.925Z,26.17
2023-03-11T15:33:54.923Z,26.17
2023-03-11T15:37:54.872Z,26.08
2023-03-11T15:41:54.831Z,26.06
2023-03-11T15:45:54.859Z,26.08
2023-03-11T15:49:54.788Z,26.10
2023-03-11T15:53:54.749Z,26.03
2023-03-11T15:57:54.694Z,26.00
2023-03-11T16:01:54.654Z,25.93
2023-03-11T16:05:54.647Z,25.92
2023-03-11T16:09:54.563Z,25.86
2023-03-11T16:13:54.553Z,25.82
2023-03-11T16:17:54.524Z,25.73
2023-03-11T16:21:54.494Z,25.72
2023-03-11T16:25:54.445Z,25.68
2023-03-11T16:29:54.441Z,25.65
2023-03-11T16:33:54.371Z,25.56
2023-03-11T16:37:54.337Z,25.52
2023-03-11T16:41:54.339Z,25.45
2023-03-11T16:45:54.255Z,25.41
2023-03-11T16:49:54.254Z,25.36
2023-03-11T16:53:54.284Z,25.33
2023-03-11T16:57:54.537Z,25.26
2023-03-11T17:01:54.538Z,25.28
2023-03-11T17:05:54.459Z,25.24
2023-03-11T17:09:54.412Z,25.21
2023-03-11T17:14:00.595Z,25.19
2023-03-11T17:17:55.379Z,25.18
2023-03-11T17:21:54.295Z,25.12
2023-03-11T17:25:54.462Z,25.12
2023-03-11T17:29:54.686Z,25.10
2023-03-11T17:33:54.884Z,25.07
2023-03-11T17:37:55.052Z,25.07
2023-03-11T17:41:55.081Z,25.02
2023-03-11T17:45:55.160Z,25.01
2023-03-11T17:49:55.163Z,24.99
2023-03-11T17:53:55.280Z,24.98
2023-03-11T17:57:55.300Z,24.98
2023-03-11T18:01:55.294Z,24.97
2023-03-11T18:05:55.218Z,24.97
2023-03-11T18:09:55.259Z,24.94
2023-03-11T18:13:55.263Z,24.91
2023-03-11T18:17:55.259Z,24.90
2023-03-11T18:21:55.284Z,24.91
2023-03-11T18:25:55.272Z,24.87
2023-03-11T18:29:55.471Z,24.85
2023-03-11T18:33:55.380Z,24.85
2023-03-11T18:37:55.463Z,24.82
2023-03-11T18:41:55.549Z,24.81
2023-03-11T18:45:55.697Z,24.78
2023-03-11T18:49:55.737Z,24.77
2023-03-11T18:53:55.863Z,24.72
2023-03-11T18:57:56.032Z,24.68
2023-03-11T19:01:56.176Z,24.66
2023-03-11T19:05:56.339Z,24.64
2023-03-11T19:09:56.496Z,24.61
2023-03-11T19:13:56.632Z,24.59
2023-03-11T19:18:06.246Z,24.56
2023-03-11T19:21:57.795Z,24.53
2023-03-11T19:26:03.138Z,24.50
2023-03-11T19:29:57.710Z,24.46
2023-03-11T19:33:56.688Z,24.41
2023-03-11T19:37:57.298Z,24.41
2023-03-11T19:41:56.617Z,24.39
2023-03-11T19:45:56.585Z,24.41
2023-03-11T19:49:56.568Z,24.41
2023-03-11T19:53:56.538Z,24.43
2023-03-11T19:57:56.479Z,24.43
2023-03-11T20:01:56.432Z,24.44
2023-03-11T20:05:56.459Z,24.46
2023-03-11T20:09:56.491Z,24.43
2023-03-11T20:13:56.754Z,24.46
2023-03-11T20:17:56.873Z,24.43
2023-03-11T20:21:57.045Z,24.44
2023-03-11T20:25:57.193Z,24.43
2023-03-11T20:29:57.432Z,24.46
2023-03-11T20:33:57.544Z,24.43
2023-03-11T20:37:57.676Z,24.44
2023-03-11T20:41:57.832Z,24.47
2023-03-11T20:45:57.997Z,24.46
2023-03-11T20:49:58.160Z,24.44
2023-03-11T20:53:58.250Z,24.47
2023-03-11T20:57:58.467Z,24.44
2023-03-11T21:01:58.656Z,24.44
2023-03-11T21:05:58.790Z,24.46
2023-03-11T21:09:58.869Z,24.49
2023-03-11T21:13:59.043Z,24.44
2023-03-11T21:17:59.293Z,24.43
2023-03-11T21:21:59.564Z,24.41
2023-03-11T21:25:59.590Z,24.40
2023-03-11T21:29:59.808Z,24.43
2023-03-11T21:34:00.042Z,24.41
2023-03-11T21:38:00.171Z,24.40
2023-03-11T21:42:00.282Z,24.40
2023-03-11T21:46:00.545Z,24.41
2023-03-11T21:50:00.721Z,24.37
2023-03-11T21:54:00.881Z,24.37
2023-03-11T21:58:01.104Z,24.37
2023-03-11T22:02:01.478Z,24.37
2023-03-11T22:06:01.384Z,24.36
2023-03-11T22:10:01.667Z,24.37
2023-03-11T22:14:01.865Z,24.36
2023-03-11T22:18:01.970Z,24.36
2023-03-11T22:22:02.188Z,24.34
2023-03-11T22:26:02.355Z,24.36
2023-03-11T22:30:02.590Z,24.36
2023-03-11T22:34:02.793Z,24.36
2023-03-11T22:38:02.994Z,24.34
2023-03-11T22:42:03.224Z,24.33
2023-03-11T22:46:03.442Z,24.34
2023-03-11T22:50:03.616Z,24.34
2023-03-11T22:54:03.810Z,24.31
2023-03-11T22:58:04.024Z,24.31
2023-03-11T23:02:04.246Z,24.34
2023-03-11T23:06:04.474Z,24.33
2023-03-11T23:10:04.643Z,24.33
2023-03-11T23:14:04.879Z,24.34
2023-03-11T23:18:05.094Z,24.33
2023-03-11T23:22:05.331Z,24.31
2023-03-11T23:26:05.497Z,24.30
2023-03-11T23:30:05.740Z,24.29
2023-03-11T23:34:05.944Z,24.29
2023-03-11T23:38:06.168Z,24.29
2023-03-11T23:42:18.650Z,24.27
2023-03-11T23:46:07.336Z,24.29
2023-03-11T23:50:06.310Z,24.29
2023-03-11T23:54:06.503Z,24.26
2023-03-11T23:58:06.481Z,24.24
